Time,TemperatureF,DewpointF,PressureIn,WindDirection,WindDirectionDegrees,WindSpeedMPH,WindSpeedGustMPH,Humidity,HourlyPrecipIn,Conditions,Clouds,dailyrainin,SoftwareType,DateUTC
2013-01-17 00:04:00,21.0,19.1,29.59,NNE,22,0.0,0.0,92,0.00,CLR,,0.00,WeatherDisplay:10.37,2013-01-17 09:04:00,
2013-01-17 00:09:00,21.0,19.1,29.59,NNE,22,0.0,0.0,92,0.00,CLR,,0.00,WeatherDisplay:10.37,2013-01-17 09:09:00,
2013-01-17 00:14:00,21.0,19.1,29.59,NNE,22,0.0,0.0,92,0.00,CLR,,0.00,WeatherDisplay:10.37,2013-01-17 09:14:00,
2013-01-17 00:19:00,21.0,19.1,29.59,NNE,22,0.0,0.0,92,0.00,CLR,,0.00,WeatherDisplay:10.37,2013-01-17 09:19:00,
2013-01-17 00:24:00,20.8,18.9,29.59,NNE,22,0.0,0.0,92,0.00,CLR,,0.00,WeatherDisplay:10.37,2013-01-17 09:24:00,
2013-01-17 00:29:00,20.8,18.6,29.59,NNE,22,0.0,0.0,91,0.00,CLR,,0.00,WeatherDisplay:10.37,2013-01-17 09:29:00,
2013-01-17 00:34:00,20.8,18.6,29.59,NNE,22,0.0,0.0,91,0.00,CLR,,0.00,WeatherDisplay:10.37,2013-01-17 09:34:00,
2013-01-17 00:39:00,20.8,18.6,29.59,NNE,22,0.0,0.0,91,0.00,CLR,,0.00,WeatherDisplay:10.37,2013-01-17 09:39:00,
2013-01-17 00:44:00,20.7,18.4,29.59,NNE,22,0.0,0.0,91,0.00,CLR,,0.00,WeatherDisplay:10.37,2013-01-17 09:44:00,
2013-01-17 00:49:00,20.7,18.4,29.59,NNE,22,0.0,0.0,91,0.00,CLR,,0.00,WeatherDisplay:10.37,2013-01-17 09:49:00,
2013-01-17 00:54:00,20.7,18.4,29.59,NNE,22,0.0,0.0,91,0.00,CLR,,0.00,WeatherDisplay:10.37,2013-01-17 09:54:00,
2013-01-17 00:59:00,20.7,18.4,29.59,NNE,22,0.0,0.0,91,0.00,CLR,,0.00,WeatherDisplay:10.37,2013-01-17 09:59:00,
2013-01-17 01:04:00,20.5,18.3,29.59,NNE,22,0.0,0.0,91,0.00,CLR,,0.00,WeatherDisplay:10.37,2013-01-17 10:04:00,
2013-01-17 01:09:00,20.5,18.3,29.59,NNE,22,0.0,0.0,91,0.00,CLR,,0.00,WeatherDisplay:10.37,2013-01-17 10:09:00,
2013-01-17 01:14:00,20.5,18.3,29.59,NNE,22,0.0,0.0,91,0.00,CLR,,0.00,WeatherDisplay:10.37,2013-01-17 10:14:00,
2013-01-17 01:19:00,20.3,18.1,29.59,NNE,22,0.0,0.0,91,0.00,CLR,,0.00,WeatherDisplay:10.37,2013-01-17 10:19:00,
2013-01-17 01:24:00,20.3,18.1,29.59,NNE,22,0.0,0.0,91,0.00,CLR,,0.00,WeatherDisplay:10.37,2013-01-17 10:24:00,
2013-01-17 01:29:00,20.5,18.3,29.59,NNE,22,0.0,0.0,91,0.00,CLR,,0.00,WeatherDisplay:10.37,2013-01-17 10:29:00,
2013-01-17 01:34:00,20.5,18.3,29.59,NNE,22,0.0,0.0,91,0.00,CLR,,0.00,WeatherDisplay:10.37,2013-01-17 10:34:00,
2013-01-17 01:39:00,20.5,18.3,29.59,NNE,22,0.0,0.0,91,0.00,CLR,,0.00,WeatherDisplay:10.37,2013-01-17 10:39:00,
2013-01-17 01:44:00,20.5,18.3,29.59,NNE,22,0.0,0.0,91,0.00,CLR,,0.00,WeatherDisplay:10.37,2013-01-17 10:44:00,
2013-01-17 01:49:00,20.5,18.3,29.59,NNE,22,0.0,0.0,91,0.00,CLR,,0.00,WeatherDisplay:10.37,2013-01-17 10:49:00,
2013-01-17 01:54:00,20.5,18.3,29.59,NNE,22,0.0,0.0,91,0.00,CLR,,0.00,WeatherDisplay:10.37,2013-01-17 10:54:00,
2013-01-17 01:59:00,20.7,18.4,29.59,NNE,22,0.0,0.0,91,0.00,CLR,,0.00,WeatherDisplay:10.37,2013-01-17 10:59:00,
2013-01-17 02:04:00,20.7,18.4,29.56,NNE,22,0.0,0.0,91,0.00,CLR,,0.00,WeatherDisplay:10.37,2013-01-17 11:04:00,
2013-01-17 02:09:00,20.7,18.4,29.56,NNE,22,0.0,0.0,91,0.00,CLR,,0.00,WeatherDisplay:10.37,2013-01-17 11:09:00,
2013-01-17 02:14:00,20.8,18.4,29.56,NNE,22,0.0,0.0,90,0.00,CLR,,0.00,WeatherDisplay:10.37,2013-01-17 11:14:00,
2013-01-17 02:19:00,20.8,18.4,29.56,NNE,22,0.0,0.0,90,0.00,CLR,,0.00,WeatherDisplay:10.37,2013-01-17 11:19:00,
2013-01-17 02:24:00,20.8,18.4,29.56,NNE,22,0.0,0.0,90,0.00,CLR,,0.00,WeatherDisplay:10.37,2013-01-17 11:24:00,
2013-01-17 02:29:00,20.8,18.1,29.56,NNE,22,0.0,0.0,89,0.00,CLR,,0.00,WeatherDisplay:10.37,2013-01-17 11:29:00,
2013-01-17 02:34:00,20.8,18.1,29.56,NNE,22,0.0,0.0,89,0.00,CLR,,0.00,WeatherDisplay:10.37,2013-01-17 11:34:00,
2013-01-17 02:39:00,20.8,17.8,29.56,NNE,22,0.0,0.0,88,0.00,CLR,,0.00,WeatherDisplay:10.37,2013-01-17 11:39:00,
2013-01-17 02:44:00,20.8,17.8,29.56,NNE,22,0.0,0.0,88,0.00,CLR,,0.00,WeatherDisplay:10.37,2013-01-17 11:44:00,
2013-01-17 02:49:00,20.8,17.8,29.56,NNE,22,0.0,0.0,88,0.00,CLR,,0.00,WeatherDisplay:10.37,2013-01-17 11:49:00,
2013-01-17 02:54:00,20.7,17.7,29.56,NNE,22,0.0,0.0,88,0.00,CLR,,0.00,WeatherDisplay:10.37,2013-01-17 11:54:00,
2013-01-17 02:59:00,20.7,17.7,29.56,NNE,22,0.0,0.0,88,0.00,CLR,,0.00,WeatherDisplay:10.37,2013-01-17 11:59:00,
2013-01-17 03:04:00,20.7,17.7,29.56,NNE,22,0.0,0.0,88,0.00,CLR,,0.00,WeatherDisplay:10.37,2013-01-17 12:04:00,
2013-01-17 03:09:00,20.7,17.7,29.56,NNE,22,0.0,0.0,88,0.00,CLR,,0.00,WeatherDisplay:10.37,2013-01-17 12:09:00,
2013-01-17 03:14:00,20.7,17.7,29.56,NNE,22,0.0,0.0,88,0.00,CLR,,0.00,WeatherDisplay:10.37,2013-01-17 12:14:00,
2013-01-17 03:19:00,20.7,17.7,29.56,NNE,22,0.0,0.0,88,0.00,CLR,,0.00,WeatherDisplay:10.37,2013-01-17 12:19:00,
2013-01-17 03:24:00,20.7,17.7,29.56,NNE,22,0.0,0.0,88,0.00,CLR,,0.00,WeatherDisplay:10.37,2013-01-17 12:24:00,
2013-01-17 03:29:00,20.7,17.7,29.56,NNE,22,0.0,0.0,88,0.00,CLR,,0.00,WeatherDisplay:10.37,2013-01-17 12:29:00,
2013-01-17 03:34:00,20.7,17.7,29.56,NNE,22,0.0,0.0,88,0.00,CLR,,0.00,WeatherDisplay:10.37,2013-01-17 12:34:00,
2013-01-17 03:39:00,20.7,17.7,29.56,NNE,22,0.0,0.0,88,0.00,CLR,,0.00,WeatherDisplay:10.37,2013-01-17 12:39:00,
2013-01-17 03:44:00,20.7,17.7,29.56,NNE,22,0.0,0.0,88,0.00,CLR,,0.00,WeatherDisplay:10.37,2013-01-17 12:44:00,
2013-01-17 03:49:00,20.7,17.7,29.56,NNE,22,0.0,0.0,88,0.00,CLR,,0.00,WeatherDisplay:10.37,2013-01-17 12:49:00,
2013-01-17 03:55:00,20.7,17.9,29.56,NNE,22,0.0,0.0,89,0.00,CLR,,0.00,WeatherDisplay:10.37,2013-01-17 12:55:00,
2013-01-17 04:00:00,20.7,17.9,29.56,NNE,22,0.0,0.0,89,0.00,CLR,,0.00,WeatherDisplay:10.37,2013-01-17 13:00:00,
2013-01-17 04:05:00,20.7,17.9,29.56,NNE,22,0.0,0.0,89,0.00,CLR,,0.00,WeatherDisplay:10.37,2013-01-17 13:05:00,
2013-01-17 04:10:00,20.5,17.5,29.56,NNE,22,0.0,0.0,88,0.00,CLR,,0.00,WeatherDisplay:10.37,2013-01-17 13:10:00,
2013-01-17 04:15:00,20.5,17.5,29.56,NNE,22,0.0,0.0,88,0.00,CLR,,0.00,WeatherDisplay:10.37,2013-01-17 13:15:00,
2013-01-17 04:20:00,20.3,17.3,29.53,NNE,22,0.0,0.0,88,0.00,CLR,,0.00,WeatherDisplay:10.37,2013-01-17 13:20:00,
2013-01-17 04:25:00,20.3,17.3,29.53,NNE,22,0.0,0.0,88,0.00,CLR,,0.00,WeatherDisplay:10.37,2013-01-17 13:25:00,
2013-01-17 04:30:00,20.3,17.3,29.53,NNE,22,0.0,0.0,88,0.00,CLR,,0.00,WeatherDisplay:10.37,2013-01-17 13:30:00,
2013-01-17 04:35:00,20.3,17.3,29.53,NNE,22,0.0,0.0,88,0.00,CLR,,0.00,WeatherDisplay:10.37,2013-01-17 13:35:00,
2013-01-17 04:40:00,20.3,17.6,29.53,NNE,22,0.0,0.0,89,0.00,CLR,,0.00,WeatherDisplay:10.37,2013-01-17 13:40:00,
2013-01-17 04:45:00,20.1,17.4,29.53,NNE,22,0.0,0.0,89,0.00,CLR,,0.00,WeatherDisplay:10.37,2013-01-17 13:45:00,
2013-01-17 04:50:00,20.1,17.4,29.53,NNE,22,0.0,0.0,89,0.00,CLR,,0.00,WeatherDisplay:10.37,2013-01-17 13:50:00,
2013-01-17 04:55:00,20.1,17.4,29.53,NNE,22,0.0,0.0,89,0.00,CLR,,0.00,WeatherDisplay:10.37,2013-01-17 13:55:00,
2013-01-17 05:00:00,20.1,17.4,29.53,NNE,22,0.0,0.0,89,0.00,CLR,,0.00,WeatherDisplay:10.37,2013-01-17 14:00:00,
2013-01-17 05:05:00,20.1,17.4,29.53,NNE,22,0.0,0.0,89,0.00,CLR,,0.00,WeatherDisplay:10.37,2013-01-17 14:05:00,
2013-01-17 05:10:00,20.1,17.4,29.53,NNE,22,0.0,0.0,89,0.00,CLR,,0.00,WeatherDisplay:10.37,2013-01-17 14:10:00,
2013-01-17 05:15:00,19.9,17.2,29.53,NNE,22,0.0,0.0,89,0.00,CLR,,0.00,WeatherDisplay:10.37,2013-01-17 14:15:00,
2013-01-17 05:20:00,19.9,17.2,29.53,NNE,22,0.0,0.0,89,0.00,CLR,,0.00,WeatherDisplay:10.37,2013-01-17 14:20:00,
2013-01-17 05:25:00,19.9,17.2,29.53,NNE,22,1.6,0.0,89,0.00,CLR,,0.00,WeatherDisplay:10.37,2013-01-17 14:25:00,
2013-01-17 05:30:00,19.9,17.2,29.53,NNE,22,0.0,0.0,89,0.00,CLR,,0.00,WeatherDisplay:10.37,2013-01-17 14:30:00,
2013-01-17 05:35:00,19.9,17.2,29.53,NNE,22,0.0,0.0,89,0.00,CLR,,0.00,WeatherDisplay:10.37,2013-01-17 14:35:00,
2013-01-17 05:40:00,19.9,17.2,29.53,NNE,22,0.0,0.0,89,0.00,CLR,,0.00,WeatherDisplay:10.37,2013-01-17 14:40:00,
2013-01-17 05:45:00,19.8,17.0,29.53,NNE,22,0.0,0.0,89,0.00,CLR,,0.00,WeatherDisplay:10.37,2013-01-17 14:45:00,
2013-01-17 05:50:00,19.8,17.0,29.53,NNE,22,0.0,0.0,89,0.00,CLR,,0.00,WeatherDisplay:10.37,2013-01-17 14:50:00,
2013-01-17 05:55:00,19.6,16.9,29.53,ENE,68,0.0,0.0,89,0.00,CLR,,0.00,WeatherDisplay:10.37,2013-01-17 14:55:00,
2013-01-17 06:00:00,19.6,16.9,29.53,ENE,68,0.0,0.0,89,0.00,CLR,,0.00,WeatherDisplay:10.37,2013-01-17 15:00:00,
2013-01-17 06:05:00,19.6,16.9,29.53,ENE,68,0.0,0.0,89,0.00,CLR,,0.00,WeatherDisplay:10.37,2013-01-17 15:05:00,
2013-01-17 06:10:00,19.6,17.1,29.53,ENE,68,0.0,0.0,90,0.00,CLR,,0.00,WeatherDisplay:10.37,2013-01-17 15:10:00,
2013-01-17 06:15:00,19.6,17.1,29.53,NE,45,0.0,0.0,90,0.00,CLR,,0.00,WeatherDisplay:10.37,2013-01-17 15:15:00,
2013-01-17 06:20:00,19.6,17.1,29.53,ENE,68,0.0,0.0,90,0.00,CLR,,0.00,WeatherDisplay:10.37,2013-01-17 15:20:00,
2013-01-17 06:25:00,19.6,17.1,29.53,ENE,68,0.0,0.0,90,0.00,CLR,,0.00,WeatherDisplay:10.37,2013-01-17 15:25:00,
2013-01-17 06:30:00,19.4,16.9,29.53,ENE,68,0.0,0.0,90,0.00,CLR,,0.00,WeatherDisplay:10.37,2013-01-17 15:30:00,
2013-01-17 06:35:00,19.4,16.9,29.53,ENE,68,0.0,0.0,90,0.00,CLR,,0.00,WeatherDisplay:10.37,2013-01-17 15:35:00,
2013-01-17 06:40:00,19.4,16.9,29.53,ENE,68,0.0,0.0,90,0.00,CLR,,0.00,WeatherDisplay:10.37,2013-01-17 15:40:00,
2013-01-17 06:45:00,19.6,17.1,29.53,ENE,68,0.0,0.0,90,0.00,CLR,,0.00,WeatherDisplay:10.37,2013-01-17 15:45:00,
2013-01-17 06:50:00,19.4,17.2,29.53,ENE,68,0.0,0.0,91,0.00,CLR,,0.00,WeatherDisplay:10.37,2013-01-17 15:50:00,
2013-01-17 06:55:00,19.4,17.2,29.53,ENE,68,0.0,0.0,91,0.00,CLR,,0.00,WeatherDisplay:10.37,2013-01-17 15:55:00,
2013-01-17 07:00:00,19.4,17.2,29.53,ENE,68,0.0,0.0,91,0.00,CLR,,0.00,WeatherDisplay:10.37,2013-01-17 16:00:00,
2013-01-17 07:05:00,19.2,17.0,29.53,ENE,68,0.0,0.0,91,0.00,CLR,,0.00,WeatherDisplay:10.37,2013-01-17 16:05:00,
2013-01-17 07:10:00,19.2,16.8,29.53,ENE,68,0.0,0.0,90,0.00,CLR,,0.00,WeatherDisplay:10.37,2013-01-17 16:10:00,
2013-01-17 07:15:00,19.2,16.8,29.53,ENE,68,0.0,0.0,90,0.00,CLR,,0.00,WeatherDisplay:10.37,2013-01-17 16:15:00,
2013-01-17 07:20:00,19.2,16.8,29.53,NNE,22,0.0,0.0,90,0.00,CLR,,0.00,WeatherDisplay:10.37,2013-01-17 16:20:00,
2013-01-17 07:25:00,19.2,16.8,29.53,NNE,22,0.0,0.0,90,0.00,CLR,,0.00,WeatherDisplay:10.37,2013-01-17 16:25:00,
2013-01-17 07:31:00,19.2,16.8,29.53,NNE,22,0.0,0.0,90,0.00,CLR,,0.00,WeatherDisplay:10.37,2013-01-17 16:31:00,
2013-01-17 07:36:00,19.2,16.8,29.53,NNE,22,0.0,0.0,90,0.00,CLR,,0.00,WeatherDisplay:10.37,2013-01-17 16:36:00,
2013-01-17 07:41:00,19.2,16.8,29.53,NNE,22,0.0,0.0,90,0.00,CLR,,0.00,WeatherDisplay:10.37,2013-01-17 16:41:00,
2013-01-17 07:46:00,19.2,16.8,29.53,NNE,22,0.0,0.0,90,0.00,CLR,,0.00,WeatherDisplay:10.37,2013-01-17 16:46:00,
2013-01-17 07:51:00,19.2,16.8,29.53,NNE,22,0.0,0.0,90,0.00,CLR,,0.00,WeatherDisplay:10.37,2013-01-17 16:51:00,
2013-01-17 07:56:00,19.0,16.6,29.53,NNE,22,0.0,0.0,90,0.00,CLR,,0.00,WeatherDisplay:10.37,2013-01-17 16:56:00,
2013-01-17 08:01:00,19.0,16.6,29.53,NNE,22,0.0,0.0,90,0.00,CLR,,0.00,WeatherDisplay:10.37,2013-01-17 17:01:00,
2013-01-17 08:06:00,19.0,16.6,29.53,NNE,22,0.0,0.0,90,0.00,CLR,,0.00,WeatherDisplay:10.37,2013-01-17 17:06:00,
2013-01-17 08:11:00,19.0,16.8,29.53,NNE,22,0.0,0.0,91,0.00,CLR,,0.00,WeatherDisplay:10.37,2013-01-17 17:11:00,
2013-01-17 08:16:00,19.0,16.8,29.53,NNE,22,0.0,0.0,91,0.00,CLR,,0.00,WeatherDisplay:10.37,2013-01-17 17:16:00,
2013-01-17 08:21:00,19.2,17.0,29.53,NNE,22,0.0,0.0,91,0.00,CLR,,0.00,WeatherDisplay:10.37,2013-01-17 17:21:00,
2013-01-17 08:26:00,19.2,17.0,29.53,NNE,22,0.0,0.0,91,0.00,CLR,,0.00,WeatherDisplay:10.37,2013-01-17 17:26:00,
2013-01-17 08:31:00,19.2,17.0,29.53,NNE,22,0.0,0.0,91,0.00,CLR,,0.00,WeatherDisplay:10.37,2013-01-17 17:31:00,
2013-01-17 08:36:00,19.2,17.0,29.53,NNE,22,0.0,0.0,91,0.00,CLR,,0.00,WeatherDisplay:10.37,2013-01-17 17:36:00,
2013-01-17 08:41:00,19.2,17.0,29.53,NNE,22,0.0,0.0,91,0.00,CLR,,0.00,WeatherDisplay:10.37,2013-01-17 17:41:00,
2013-01-17 08:46:00,19.2,17.0,29.53,NNE,22,0.0,0.0,91,0.00,CLR,,0.00,WeatherDisplay:10.37,2013-01-17 17:46:00,
2013-01-17 08:51:00,19.2,17.0,29.56,NNE,22,0.0,0.0,91,0.00,CLR,,0.00,WeatherDisplay:10.37,2013-01-17 17:51:00,
2013-01-17 08:56:00,19.2,17.3,29.56,NNE,22,0.0,0.0,92,0.00,CLR,,0.00,WeatherDisplay:10.37,2013-01-17 17:56:00,
2013-01-17 09:01:00,19.0,16.8,29.56,NNE,22,0.0,0.0,91,0.00,CLR,,0.00,WeatherDisplay:10.37,2013-01-17 18:01:00,
2013-01-17 09:06:00,19.0,16.6,29.56,NNE,22,0.0,0.0,90,0.00,CLR,,0.00,WeatherDisplay:10.37,2013-01-17 18:06:00,
2013-01-17 09:11:00,19.0,16.6,29.56,NNE,22,0.0,0.0,90,0.00,CLR,,0.00,WeatherDisplay:10.37,2013-01-17 18:11:00,
2013-01-17 09:16:00,19.0,16.6,29.56,NNE,22,0.0,0.0,90,0.00,CLR,,0.00,WeatherDisplay:10.37,2013-01-17 18:16:00,
2013-01-17 09:21:00,18.7,16.0,29.56,NNE,22,0.0,0.0,89,0.00,CLR,,0.00,WeatherDisplay:10.37,2013-01-17 18:21:00,
2013-01-17 09:26:00,18.7,15.7,29.56,NNE,22,0.0,0.0,88,0.00,CLR,,0.00,WeatherDisplay:10.37,2013-01-17 18:26:00,
2013-01-17 09:31:00,18.7,16.0,29.56,NNE,22,0.0,0.0,89,0.00,CLR,,0.00,WeatherDisplay:10.37,2013-01-17 18:31:00,
2013-01-17 09:36:00,18.5,15.8,29.56,NNE,22,0.0,0.0,89,0.00,CLR,,0.00,WeatherDisplay:10.37,2013-01-17 18:36:00,
2013-01-17 09:41:00,18.5,15.8,29.56,NNE,22,0.0,0.0,89,0.00,CLR,,0.00,WeatherDisplay:10.37,2013-01-17 18:41:00,
2013-01-17 09:46:00,18.5,15.8,29.56,NNE,22,0.0,0.0,89,0.00,CLR,,0.00,WeatherDisplay:10.37,2013-01-17 18:46:00,
2013-01-17 09:51:00,18.5,16.1,29.56,NNE,22,0.0,0.0,90,0.00,CLR,,0.00,WeatherDisplay:10.37,2013-01-17 18:51:00,
2013-01-17 09:56:00,18.5,16.1,29.56,NNE,22,0.0,0.0,90,0.00,CLR,,0.00,WeatherDisplay:10.37,2013-01-17 18:56:00,
2013-01-17 10:01:00,18.5,16.1,29.56,NNE,22,0.0,0.0,90,0.00,CLR,,0.00,WeatherDisplay:10.37,2013-01-17 19:01:00,
2013-01-17 10:06:00,18.5,16.1,29.56,NNE,22,0.0,0.0,90,0.00,CLR,,0.00,WeatherDisplay:10.37,2013-01-17 19:06:00,
2013-01-17 10:11:00,18.5,16.1,29.56,NNE,22,0.0,0.0,90,0.00,CLR,,0.00,WeatherDisplay:10.37,2013-01-17 19:11:00,
2013-01-17 10:16:00,18.7,16.0,29.56,NNE,22,0.0,0.0,89,0.00,CLR,,0.00,WeatherDisplay:10.37,2013-01-17 19:16:00,
2013-01-17 10:21:00,18.7,15.5,29.56,NNE,22,0.0,0.0,87,0.00,CLR,,0.00,WeatherDisplay:10.37,2013-01-17 19:21:00,
2013-01-17 10:26:00,18.7,14.9,29.56,NNE,22,0.0,0.0,85,0.00,CLR,,0.00,WeatherDisplay:10.37,2013-01-17 19:26:00,
2013-01-17 10:31:00,18.5,14.5,29.56,NNE,22,0.0,0.0,84,0.00,CLR,,0.00,WeatherDisplay:10.37,2013-01-17 19:31:00,
2013-01-17 10:36:00,18.5,14.2,29.56,NNE,22,0.0,0.0,83,0.00,CLR,,0.00,WeatherDisplay:10.37,2013-01-17 19:36:00,
2013-01-17 10:41:00,18.5,14.2,29.56,NNE,22,0.0,0.0,83,0.00,CLR,,0.00,WeatherDisplay:10.37,2013-01-17 19:41:00,
2013-01-17 10:46:00,18.5,14.5,29.56,NNE,22,0.0,0.0,84,0.00,CLR,,0.00,WeatherDisplay:10.37,2013-01-17 19:46:00,
2013-01-17 10:51:00,18.3,14.0,29.56,NNE,22,0.0,0.0,83,0.00,CLR,,0.00,WeatherDisplay:10.37,2013-01-17 19:51:00,
2013-01-17 10:56:00,18.3,14.3,29.56,NNE,22,0.0,0.0,84,0.00,CLR,,0.00,WeatherDisplay:10.37,2013-01-17 19:56:00,
2013-01-17 11:01:00,18.5,14.7,29.56,NNE,22,0.0,0.0,85,0.00,CLR,,0.00,WeatherDisplay:10.37,2013-01-17 20:01:00,
2013-01-17 11:06:00,18.5,14.7,29.56,NNE,22,0.0,0.0,85,0.00,CLR,,0.00,WeatherDisplay:10.37,2013-01-17 20:06:00,
2013-01-17 11:11:00,18.5,15.0,29.56,NNE,22,0.0,0.0,86,0.00,CLR,,0.00,WeatherDisplay:10.37,2013-01-17 20:11:00,
2013-01-17 11:16:00,18.5,15.0,29.56,NNE,22,0.0,0.0,86,0.00,CLR,,0.00,WeatherDisplay:10.37,2013-01-17 20:16:00,
2013-01-17 11:21:00,18.7,15.2,29.56,NNE,22,0.0,0.0,86,0.00,CLR,,0.00,WeatherDisplay:10.37,2013-01-17 20:21:00,
2013-01-17 11:26:00,18.7,15.2,29.56,NNE,22,0.0,0.0,86,0.00,CLR,,0.00,WeatherDisplay:10.37,2013-01-17 20:26:00,
2013-01-17 11:31:00,19.0,15.3,29.56,NNE,22,0.0,0.0,85,0.00,CLR,,0.00,WeatherDisplay:10.37,2013-01-17 20:31:00,
2013-01-17 11:36:00,19.0,15.0,29.56,NNE,22,0.0,0.0,84,0.00,CLR,,0.00,WeatherDisplay:10.37,2013-01-17 20:36:00,
2013-01-17 11:41:00,19.0,14.7,29.56,NNE,22,0.0,0.0,83,0.00,CLR,,0.00,WeatherDisplay:10.37,2013-01-17 20:41:00,
2013-01-17 11:46:00,18.9,13.7,29.56,NNE,22,0.0,0.0,80,0.00,CLR,,0.00,WeatherDisplay:10.37,2013-01-17 20:46:00,
2013-01-17 11:51:00,18.9,13.4,29.56,NNE,22,0.0,0.0,79,0.00,CLR,,0.00,WeatherDisplay:10.37,2013-01-17 20:51:00,
2013-01-17 11:56:00,18.7,13.0,29.56,NNE,22,0.0,0.0,78,0.00,CLR,,0.00,WeatherDisplay:10.37,2013-01-17 20:56:00,
2013-01-17 12:01:00,19.0,13.6,29.56,NNE,22,0.0,0.0,79,0.00,CLR,,0.00,WeatherDisplay:10.37,2013-01-17 21:01:00,
2013-01-17 12:06:00,18.9,13.7,29.59,NNE,22,0.0,0.0,80,0.00,CLR,,0.00,WeatherDisplay:10.37,2013-01-17 21:06:00,
2013-01-17 12:11:00,19.0,14.2,29.59,NNE,22,0.0,0.0,81,0.00,CLR,,0.00,WeatherDisplay:10.37,2013-01-17 21:11:00,
2013-01-17 12:16:00,18.9,14.0,29.59,NNE,22,0.0,0.0,81,0.00,CLR,,0.00,WeatherDisplay:10.37,2013-01-17 21:16:00,
2013-01-17 12:21:00,18.9,14.0,29.59,NNE,22,0.0,0.0,81,0.00,CLR,,0.00,WeatherDisplay:10.37,2013-01-17 21:21:00,
2013-01-17 12:26:00,18.9,14.0,29.59,NNE,22,0.0,0.0,81,0.00,CLR,,0.00,WeatherDisplay:10.37,2013-01-17 21:26:00,
2013-01-17 12:31:00,18.7,14.1,29.59,NNE,22,0.0,0.0,82,0.00,CLR,,0.00,WeatherDisplay:10.37,2013-01-17 21:31:00,
2013-01-17 12:36:00,18.7,13.8,29.59,NNE,22,0.0,0.0,81,0.00,CLR,,0.00,WeatherDisplay:10.37,2013-01-17 21:36:00,
2013-01-17 12:41:00,18.7,13.8,29.59,NNE,22,0.0,0.0,81,0.00,CLR,,0.00,WeatherDisplay:10.37,2013-01-17 21:41:00,
2013-01-17 12:46:00,18.5,13.6,29.59,NNE,22,0.0,0.0,81,0.00,CLR,,0.00,WeatherDisplay:10.37,2013-01-17 21:46:00,
2013-01-17 12:51:00,18.5,13.4,29.59,NNE,22,0.0,0.0,80,0.00,CLR,,0.00,WeatherDisplay:10.37,2013-01-17 21:51:00,
2013-01-17 12:56:00,18.5,13.6,29.59,NNE,22,0.0,0.0,81,0.00,CLR,,0.00,WeatherDisplay:10.37,2013-01-17 21:56:00,
2013-01-17 13:01:00,18.5,13.6,29.59,NNE,22,0.0,0.0,81,0.00,CLR,,0.00,WeatherDisplay:10.37,2013-01-17 22:01:00,
2013-01-17 13:06:00,18.5,13.6,29.59,NNE,22,0.0,0.0,81,0.00,CLR,,0.00,WeatherDisplay:10.37,2013-01-17 22:06:00,
2013-01-17 13:12:00,18.5,13.9,29.59,NNE,22,0.0,0.0,82,0.00,CLR,,0.00,WeatherDisplay:10.37,2013-01-17 22:12:00,
2013-01-17 13:17:00,18.7,14.1,29.59,NNE,22,0.0,0.0,82,0.00,CLR,,0.00,WeatherDisplay:10.37,2013-01-17 22:17:00,
2013-01-17 13:22:00,18.7,14.1,29.62,NNE,22,0.0,0.0,82,0.00,CLR,,0.00,WeatherDisplay:10.37,2013-01-17 22:22:00,
2013-01-17 13:27:00,18.7,14.1,29.62,NNE,22,0.0,0.0,82,0.00,CLR,,0.00,WeatherDisplay:10.37,2013-01-17 22:27:00,
2013-01-17 13:32:00,18.7,14.1,29.62,NNE,22,0.0,0.0,82,0.00,CLR,,0.00,WeatherDisplay:10.37,2013-01-17 22:32:00,
2013-01-17 13:37:00,18.7,14.4,29.62,NNE,22,0.0,0.0,83,0.00,CLR,,0.00,WeatherDisplay:10.37,2013-01-17 22:37:00,
2013-01-17 13:42:00,18.7,14.4,29.62,NNE,22,0.0,0.0,83,0.00,CLR,,0.00,WeatherDisplay:10.37,2013-01-17 22:42:00,
2013-01-17 13:47:00,18.9,14.8,29.62,NNE,22,0.0,0.0,84,0.00,CLR,,0.00,WeatherDisplay:10.37,2013-01-17 22:47:00,
2013-01-17 13:52:00,19.0,15.0,29.62,NNE,22,0.0,0.0,84,0.00,CLR,,0.00,WeatherDisplay:10.37,2013-01-17 22:52:00,
2013-01-17 13:57:00,19.2,15.2,29.62,NNE,22,0.0,0.0,84,0.00,CLR,,0.00,WeatherDisplay:10.37,2013-01-17 22:57:00,
2013-01-17 14:02:00,19.0,15.0,29.62,NNE,22,0.0,0.0,84,0.00,CLR,,0.00,WeatherDisplay:10.37,2013-01-17 23:02:00,
2013-01-17 14:07:00,19.0,15.0,29.62,NNE,22,0.0,0.0,84,0.00,CLR,,0.00,WeatherDisplay:10.37,2013-01-17 23:07:00,
2013-01-17 14:12:00,19.0,14.7,29.62,NNE,22,0.0,0.0,83,0.00,CLR,,0.00,WeatherDisplay:10.37,2013-01-17 23:12:00,
2013-01-17 14:17:00,18.9,14.6,29.62,NNE,22,0.0,0.0,83,0.00,CLR,,0.00,WeatherDisplay:10.37,2013-01-17 23:17:00,
2013-01-17 14:22:00,19.0,14.7,29.62,NNE,22,0.0,0.0,83,0.00,CLR,,0.00,WeatherDisplay:10.37,2013-01-17 23:22:00,
2013-01-17 14:27:00,19.0,14.4,29.62,NNE,22,0.0,0.0,82,0.00,CLR,,0.00,WeatherDisplay:10.37,2013-01-17 23:27:00,
2013-01-17 14:32:00,18.9,14.3,29.62,NNE,22,0.0,0.0,82,0.00,CLR,,0.00,WeatherDisplay:10.37,2013-01-17 23:32:00,
2013-01-17 14:37:00,18.9,14.0,29.62,NNE,22,0.0,0.0,81,0.00,CLR,,0.00,WeatherDisplay:10.37,2013-01-17 23:37:00,
2013-01-17 14:42:00,18.9,14.0,29.62,NNE,22,0.0,0.0,81,0.00,CLR,,0.00,WeatherDisplay:10.37,2013-01-17 23:42:00,
2013-01-17 14:47:00,18.9,13.7,29.62,NNE,22,0.0,0.0,80,0.00,CLR,,0.00,WeatherDisplay:10.37,2013-01-17 23:47:00,
2013-01-17 14:52:00,18.9,13.7,29.65,NNE,22,0.0,0.0,80,0.00,CLR,,0.00,WeatherDisplay:10.37,2013-01-17 23:52:00,
2013-01-17 14:57:00,19.0,13.9,29.65,NNE,22,0.0,0.0,80,0.00,CLR,,0.00,WeatherDisplay:10.37,2013-01-17 23:57:00,
2013-01-17 15:02:00,19.0,13.9,29.65,NNE,22,0.0,0.0,80,0.00,CLR,,0.00,WeatherDisplay:10.37,2013-01-18 00:02:00,
2013-01-17 15:07:00,18.9,13.4,29.65,NNE,22,0.0,0.0,79,0.00,CLR,,0.00,WeatherDisplay:10.37,2013-01-18 00:07:00,
2013-01-17 15:12:00,18.9,13.4,29.65,NNE,22,0.0,0.0,79,0.00,CLR,,0.00,WeatherDisplay:10.37,2013-01-18 00:12:00,
2013-01-17 15:17:00,19.0,13.9,29.65,NNE,22,0.0,0.0,80,0.00,CLR,,0.00,WeatherDisplay:10.37,2013-01-18 00:17:00,
2013-01-17 15:22:00,18.9,12.8,29.65,NNE,22,0.0,0.0,77,0.00,CLR,,0.00,WeatherDisplay:10.37,2013-01-18 00:22:00,
2013-01-17 15:27:00,18.7,13.0,29.65,NNE,22,0.0,0.0,78,0.00,CLR,,0.00,WeatherDisplay:10.37,2013-01-18 00:27:00,
2013-01-17 15:32:00,18.7,13.0,29.65,NNE,22,0.0,0.0,78,0.00,CLR,,0.00,WeatherDisplay:10.37,2013-01-18 00:32:00,
2013-01-17 15:37:00,19.0,13.3,29.65,NNE,22,0.0,0.0,78,0.00,CLR,,0.00,WeatherDisplay:10.37,2013-01-18 00:37:00,
2013-01-17 15:42:00,19.0,13.0,29.65,NNE,22,0.0,0.0,77,0.00,CLR,,0.00,WeatherDisplay:10.37,2013-01-18 00:42:00,
2013-01-17 15:47:00,19.0,12.4,29.65,NNE,22,0.0,0.0,75,0.00,CLR,,0.00,WeatherDisplay:10.37,2013-01-18 00:47:00,
2013-01-17 15:52:00,19.0,12.4,29.65,NNE,22,0.0,0.0,75,0.00,CLR,,0.00,WeatherDisplay:10.37,2013-01-18 00:52:00,
2013-01-17 15:57:00,18.9,11.6,29.65,NNE,22,0.0,0.0,73,0.00,CLR,,0.00,WeatherDisplay:10.37,2013-01-18 00:57:00,
2013-01-17 16:02:00,18.7,11.8,29.65,NNE,22,0.0,0.0,74,0.00,CLR,,0.00,WeatherDisplay:10.37,2013-01-18 01:02:00,
2013-01-17 16:07:00,18.7,11.8,29.68,NNE,22,0.0,0.0,74,0.00,CLR,,0.00,WeatherDisplay:10.37,2013-01-18 01:07:00,
2013-01-17 16:12:00,18.5,11.9,29.68,NNE,22,0.0,0.0,75,0.00,CLR,,0.00,WeatherDisplay:10.37,2013-01-18 01:12:00,
2013-01-17 16:17:00,18.5,12.2,29.68,NNE,22,0.0,0.0,76,0.00,CLR,,0.00,WeatherDisplay:10.37,2013-01-18 01:17:00,
2013-01-17 16:22:00,18.5,12.2,29.68,NNE,22,0.0,0.0,76,0.00,CLR,,0.00,WeatherDisplay:10.37,2013-01-18 01:22:00,
2013-01-17 16:27:00,18.5,12.2,29.68,NNE,22,0.0,0.0,76,0.00,CLR,,0.00,WeatherDisplay:10.37,2013-01-18 01:27:00,
2013-01-17 16:32:00,18.5,11.9,29.68,NE,45,0.0,0.0,75,0.00,CLR,,0.00,WeatherDisplay:10.37,2013-01-18 01:32:00,
2013-01-17 16:37:00,18.5,11.0,29.68,NE,45,0.0,0.0,72,0.00,CLR,,0.00,WeatherDisplay:10.37,2013-01-18 01:37:00,
2013-01-17 16:42:00,18.5,11.0,29.68,NE,45,0.0,0.0,72,0.00,CLR,,0.00,WeatherDisplay:10.37,2013-01-18 01:42:00,
2013-01-17 16:47:00,18.5,11.3,29.68,NE,45,0.0,0.0,73,0.00,CLR,,0.00,WeatherDisplay:10.37,2013-01-18 01:47:00,
2013-01-17 16:52:00,18.3,11.4,29.68,ENE,68,0.0,0.0,74,0.00,CLR,,0.00,WeatherDisplay:10.37,2013-01-18 01:52:00,
2013-01-17 16:57:00,18.3,11.7,29.68,ENE,68,0.0,0.0,75,0.00,CLR,,0.00,WeatherDisplay:10.37,2013-01-18 01:57:00,
2013-01-17 17:02:00,18.3,11.7,29.68,ENE,68,0.0,0.0,75,0.00,CLR,,0.00,WeatherDisplay:10.37,2013-01-18 02:02:00,
2013-01-17 17:07:00,18.3,11.7,29.71,ENE,68,0.0,0.0,75,0.00,CLR,,0.00,WeatherDisplay:10.37,2013-01-18 02:07:00,
2013-01-17 17:12:00,18.3,11.7,29.71,ENE,68,0.0,0.0,75,0.00,CLR,,0.00,WeatherDisplay:10.37,2013-01-18 02:12:00,
2013-01-17 17:17:00,18.5,12.2,29.71,ENE,68,0.0,0.0,76,0.00,CLR,,0.00,WeatherDisplay:10.37,2013-01-18 02:17:00,
2013-01-17 17:22:00,18.3,12.0,29.71,ENE,68,0.0,0.0,76,0.00,CLR,,0.00,WeatherDisplay:10.37,2013-01-18 02:22:00,
2013-01-17 17:27:00,18.5,12.2,29.71,ENE,68,0.0,0.0,76,0.00,CLR,,0.00,WeatherDisplay:10.37,2013-01-18 02:27:00,
2013-01-17 17:32:00,18.3,12.0,29.71,ENE,68,0.0,0.0,76,0.00,CLR,,0.00,WeatherDisplay:10.37,2013-01-18 02:32:00,
2013-01-17 17:37:00,18.5,12.2,29.71,ENE,68,0.0,0.0,76,0.00,CLR,,0.00,WeatherDisplay:10.37,2013-01-18 02:37:00,
2013-01-17 17:42:00,18.5,11.9,29.71,ENE,68,0.0,0.0,75,0.00,CLR,,0.00,WeatherDisplay:10.37,2013-01-18 02:42:00,
2013-01-17 17:48:00,18.5,11.9,29.71,ENE,68,0.0,0.0,75,0.00,CLR,,0.00,WeatherDisplay:10.37,2013-01-18 02:48:00,
2013-01-17 17:53:00,18.5,11.6,29.74,ENE,68,0.0,0.0,74,0.00,CLR,,0.00,WeatherDisplay:10.37,2013-01-18 02:53:00,
2013-01-17 17:58:00,18.3,11.1,29.74,ENE,68,0.0,0.0,73,0.00,CLR,,0.00,WeatherDisplay:10.37,2013-01-18 02:58:00,
2013-01-17 18:03:00,18.3,11.1,29.74,ENE,68,0.0,0.0,73,0.00,CLR,,0.00,WeatherDisplay:10.37,2013-01-18 03:03:00,
2013-01-17 18:08:00,18.3,10.8,29.74,ENE,68,0.0,0.0,72,0.00,CLR,,0.00,WeatherDisplay:10.37,2013-01-18 03:08:00,
2013-01-17 18:13:00,18.3,11.1,29.74,ENE,68,0.0,0.0,73,0.00,CLR,,0.00,WeatherDisplay:10.37,2013-01-18 03:13:00,
2013-01-17 18:18:00,18.3,10.5,29.74,ENE,68,0.0,0.0,71,0.00,CLR,,0.00,WeatherDisplay:10.37,2013-01-18 03:18:00,
2013-01-17 18:23:00,18.3,10.5,29.74,NNE,22,0.0,0.0,71,0.00,CLR,,0.00,WeatherDisplay:10.37,2013-01-18 03:23:00,
2013-01-17 18:28:00,18.3,9.2,29.74,NNE,22,0.0,0.0,67,0.00,CLR,,0.00,WeatherDisplay:10.37,2013-01-18 03:28:00,
2013-01-17 18:33:00,18.3,6.0,29.74,NNE,22,0.0,0.0,58,0.00,CLR,,0.00,WeatherDisplay:10.37,2013-01-18 03:33:00,
2013-01-17 18:38:00,18.3,7.5,29.74,NNE,22,0.0,0.0,62,0.00,CLR,,0.00,WeatherDisplay:10.37,2013-01-18 03:38:00,
2013-01-17 18:43:00,18.1,6.9,29.74,NNE,22,0.0,0.0,61,0.00,CLR,,0.00,WeatherDisplay:10.37,2013-01-18 03:43:00,
2013-01-17 18:48:00,18.1,6.6,29.74,NNE,22,0.0,0.0,60,0.00,CLR,,0.00,WeatherDisplay:10.37,2013-01-18 03:48:00,
2013-01-17 18:53:00,18.1,7.3,29.74,NNE,22,0.0,0.0,62,0.00,CLR,,0.00,WeatherDisplay:10.37,2013-01-18 03:53:00,
2013-01-17 18:58:00,17.8,7.7,29.74,NNE,22,0.0,0.0,64,0.00,CLR,,0.00,WeatherDisplay:10.37,2013-01-18 03:58:00,
2013-01-17 19:03:00,17.8,8.0,29.74,NNE,22,0.0,0.0,65,0.00,CLR,,0.00,WeatherDisplay:10.37,2013-01-18 04:03:00,
2013-01-17 19:08:00,17.8,8.0,29.74,NNW,338,2.0,0.0,65,0.00,CLR,,0.00,WeatherDisplay:10.37,2013-01-18 04:08:00,
2013-01-17 19:13:00,17.8,7.7,29.74,NNW,338,2.3,0.0,64,0.00,CLR,,0.00,WeatherDisplay:10.37,2013-01-18 04:13:00,
2013-01-17 19:18:00,17.6,8.2,29.74,NNW,338,2.3,0.0,66,0.00,CLR,,0.00,WeatherDisplay:10.37,2013-01-18 04:18:00,
2013-01-17 19:23:00,17.4,8.0,29.77,NNW,338,2.3,0.0,66,0.00,CLR,,0.00,WeatherDisplay:10.37,2013-01-18 04:23:00,
2013-01-17 19:28:00,17.2,7.8,29.77,NNW,338,2.3,0.0,66,0.00,CLR,,0.00,WeatherDisplay:10.37,2013-01-18 04:28:00,
2013-01-17 19:33:00,17.1,7.6,29.77,NNW,338,2.3,0.0,66,0.00,CLR,,0.00,WeatherDisplay:10.37,2013-01-18 04:33:00,
2013-01-17 19:38:00,17.1,7.6,29.77,NNW,338,2.3,0.0,66,0.00,CLR,,0.00,WeatherDisplay:10.37,2013-01-18 04:38:00,
2013-01-17 19:43:00,17.1,6.3,29.77,NNW,338,2.3,0.0,62,0.00,CLR,,0.00,WeatherDisplay:10.37,2013-01-18 04:43:00,
2013-01-17 19:48:00,17.1,5.2,29.77,NNW,338,2.3,0.0,59,0.00,CLR,,0.00,WeatherDisplay:10.37,2013-01-18 04:48:00,
2013-01-17 19:53:00,16.9,5.7,29.77,NNW,338,2.3,0.0,61,0.00,CLR,,0.00,WeatherDisplay:10.37,2013-01-18 04:53:00,
2013-01-17 19:58:00,16.9,5.7,29.77,NNW,338,2.3,0.0,61,0.00,CLR,,0.00,WeatherDisplay:10.37,2013-01-18 04:58:00,
2013-01-17 20:01:00,16.9,4.6,29.77,NNW,338,2.3,0.0,58,0.00,CLR,,0.00,WeatherDisplay:10.37,2013-01-18 05:01:00,
2013-01-17 20:03:00,16.7,4.8,29.77,NNW,338,2.3,0.0,59,0.00,CLR,,0.00,WeatherDisplay:10.37,2013-01-18 05:03:00,
2013-01-17 20:08:00,16.3,5.2,29.77,NNW,338,2.3,0.0,61,0.00,CLR,,0.00,WeatherDisplay:10.37,2013-01-18 05:08:00,
2013-01-17 20:13:00,16.2,4.7,29.77,NNW,338,2.3,0.0,60,0.00,CLR,,0.00,WeatherDisplay:10.37,2013-01-18 05:13:00,
2013-01-17 20:18:00,15.6,4.5,29.77,NNW,338,0.0,0.0,61,0.00,CLR,,0.00,WeatherDisplay:10.37,2013-01-18 05:18:00,
2013-01-17 20:23:00,15.4,4.7,29.80,North,0,0.0,0.0,62,0.00,CLR,,0.00,WeatherDisplay:10.37,2013-01-18 05:23:00,
2013-01-17 20:28:00,15.6,4.9,29.80,North,0,0.0,0.0,62,0.00,CLR,,0.00,WeatherDisplay:10.37,2013-01-18 05:28:00,
2013-01-17 20:33:00,15.6,4.5,29.80,North,0,0.0,0.0,61,0.00,CLR,,0.00,WeatherDisplay:10.37,2013-01-18 05:33:00,
2013-01-17 20:38:00,16.0,3.4,29.77,North,0,0.0,0.0,57,0.00,CLR,,0.00,WeatherDisplay:10.37,2013-01-18 05:38:00,
2013-01-17 20:43:00,16.0,3.0,29.77,North,0,0.0,0.0,56,0.00,CLR,,0.00,WeatherDisplay:10.37,2013-01-18 05:43:00,
2013-01-17 20:48:00,16.2,2.8,29.77,NNW,338,0.0,0.0,55,0.00,CLR,,0.00,WeatherDisplay:10.37,2013-01-18 05:48:00,
2013-01-17 20:53:00,16.2,2.4,29.77,NNW,338,0.0,0.0,54,0.00,CLR,,0.00,WeatherDisplay:10.37,2013-01-18 05:53:00,
2013-01-17 20:58:00,16.3,2.6,29.77,NNW,338,0.0,0.0,54,0.00,CLR,,0.00,WeatherDisplay:10.37,2013-01-18 05:58:00,
2013-01-17 21:03:00,16.3,2.6,29.77,NNW,338,0.0,0.0,54,0.00,CLR,,0.00,WeatherDisplay:10.37,2013-01-18 06:03:00,
2013-01-17 21:08:00,16.2,2.8,29.80,NNW,338,0.0,0.0,55,0.00,CLR,,0.00,WeatherDisplay:10.37,2013-01-18 06:08:00,
2013-01-17 21:13:00,16.3,2.6,29.80,NNW,338,0.0,0.0,54,0.00,CLR,,0.00,WeatherDisplay:10.37,2013-01-18 06:13:00,
2013-01-17 21:18:00,16.5,3.1,29.80,NNW,338,0.0,0.0,55,0.00,CLR,,0.00,WeatherDisplay:10.37,2013-01-18 06:18:00,
2013-01-17 21:23:00,16.5,2.7,29.80,NNW,338,0.0,1.6,54,0.00,CLR,,0.00,WeatherDisplay:10.37,2013-01-18 06:23:00,
2013-01-17 21:28:00,16.5,2.7,29.80,NNW,338,0.0,1.6,54,0.00,CLR,,0.00,WeatherDisplay:10.37,2013-01-18 06:28:00,
2013-01-17 21:33:00,16.5,3.1,29.80,NNW,338,0.0,1.6,55,0.00,CLR,,0.00,WeatherDisplay:10.37,2013-01-18 06:33:00,
2013-01-17 21:38:00,16.3,3.0,29.80,NNW,338,0.0,1.6,55,0.00,CLR,,0.00,WeatherDisplay:10.37,2013-01-18 06:38:00,
2013-01-17 21:43:00,16.3,3.0,29.80,NNW,338,0.0,1.6,55,0.00,CLR,,0.00,WeatherDisplay:10.37,2013-01-18 06:43:00,
2013-01-17 21:48:00,16.2,2.8,29.80,NNW,338,0.0,1.6,55,0.00,CLR,,0.00,WeatherDisplay:10.37,2013-01-18 06:48:00,
2013-01-17 21:53:00,16.2,2.4,29.80,NNW,338,0.0,0.9,54,0.00,CLR,,0.00,WeatherDisplay:10.37,2013-01-18 06:53:00,
2013-01-17 21:58:00,16.0,2.2,29.80,North,0,3.5,3.5,54,0.00,CLR,,0.00,WeatherDisplay:10.37,2013-01-18 06:58:00,
2013-01-17 22:03:00,16.0,2.6,29.80,North,0,3.5,3.5,55,0.00,CLR,,0.00,WeatherDisplay:10.37,2013-01-18 07:03:00,
2013-01-17 22:08:00,15.6,2.7,29.83,North,0,0.0,0.0,56,0.00,CLR,,0.00,WeatherDisplay:10.37,2013-01-18 07:08:00,
2013-01-17 22:13:00,15.4,2.5,29.83,WNW,292,0.0,0.0,56,0.00,CLR,,0.00,WeatherDisplay:10.37,2013-01-18 07:13:00,
2013-01-17 22:18:00,15.3,2.3,29.83,WNW,292,0.0,0.0,56,0.00,CLR,,0.00,WeatherDisplay:10.37,2013-01-18 07:18:00,
2013-01-17 22:23:00,15.1,2.2,29.83,NNW,338,0.0,0.0,56,0.00,CLR,,0.00,WeatherDisplay:10.37,2013-01-18 07:23:00,
2013-01-17 22:28:00,15.1,2.2,29.83,North,0,0.0,0.0,56,0.00,CLR,,0.00,WeatherDisplay:10.37,2013-01-18 07:28:00,
2013-01-17 22:33:00,14.9,2.4,29.83,North,0,0.0,0.0,57,0.00,CLR,,0.00,WeatherDisplay:10.37,2013-01-18 07:33:00,
2013-01-17 22:38:00,14.9,2.0,29.83,NNW,338,0.0,1.1,56,0.00,CLR,,0.00,WeatherDisplay:10.37,2013-01-18 07:38:00,
2013-01-17 22:43:00,14.9,2.4,29.83,NNW,338,0.0,1.4,57,0.00,CLR,,0.00,WeatherDisplay:10.37,2013-01-18 07:43:00,
2013-01-17 22:48:00,14.9,2.4,29.83,North,0,0.0,1.1,57,0.00,CLR,,0.00,WeatherDisplay:10.37,2013-01-18 07:48:00,
2013-01-17 22:53:00,14.7,2.6,29.83,NNW,338,1.1,1.4,58,0.00,CLR,,0.00,WeatherDisplay:10.37,2013-01-18 07:53:00,
2013-01-17 22:58:00,14.5,2.4,29.83,NNW,338,1.4,1.4,58,0.00,CLR,,0.00,WeatherDisplay:10.37,2013-01-18 07:58:00,
2013-01-17 23:03:00,14.7,3.0,29.83,NNW,338,1.4,1.4,59,0.00,CLR,,0.00,WeatherDisplay:10.37,2013-01-18 08:03:00,
2013-01-17 23:08:00,14.9,2.8,29.85,NNW,338,1.4,1.4,58,0.00,CLR,,0.00,WeatherDisplay:10.37,2013-01-18 08:08:00,
2013-01-17 23:13:00,14.9,2.8,29.85,NNW,338,1.4,1.4,58,0.00,CLR,,0.00,WeatherDisplay:10.37,2013-01-18 08:13:00,
2013-01-17 23:19:00,14.9,2.4,29.85,NNW,338,1.4,1.4,57,0.00,CLR,,0.00,WeatherDisplay:10.37,2013-01-18 08:19:00,
2013-01-17 23:24:00,14.7,1.8,29.85,NNW,338,1.4,1.4,56,0.00,CLR,,0.00,WeatherDisplay:10.37,2013-01-18 08:24:00,
2013-01-17 23:29:00,14.5,2.1,29.85,NNW,338,1.4,1.4,57,0.00,CLR,,0.00,WeatherDisplay:10.37,2013-01-18 08:29:00,
2013-01-17 23:34:00,14.7,2.2,29.85,NNW,338,1.4,1.4,57,0.00,CLR,,0.00,WeatherDisplay:10.37,2013-01-18 08:34:00,
2013-01-17 23:39:00,14.5,2.4,29.85,NNW,338,1.4,1.4,58,0.00,CLR,,0.00,WeatherDisplay:10.37,2013-01-18 08:39:00,
2013-01-17 23:44:00,14.5,2.4,29.85,NNW,338,1.4,1.4,58,0.00,CLR,,0.00,WeatherDisplay:10.37,2013-01-18 08:44:00,
2013-01-17 23:49:00,14.4,2.6,29.85,NNW,338,1.4,1.4,59,0.00,CLR,,0.00,WeatherDisplay:10.37,2013-01-18 08:49:00,
2013-01-17 23:54:00,14.4,2.6,29.85,NNW,338,1.4,1.4,59,0.00,CLR,,0.00,WeatherDisplay:10.37,2013-01-18 08:54:00,
2013-01-17 23:59:00,14.4,3.0,29.85,NNW,338,1.4,1.4,60,0.00,CLR,,0.00,WeatherDisplay:10.37,2013-01-18 08:59:00,